sensor_id;sensor_type;location;lat;lon;timestamp;temperature;humidity
66522;SHT31;53349;53.538;8.584;2023-02-15T00:01:13;6.35;76.99
66522;SHT31;53349;53.538;8.584;2023-02-15T00:03:42;6.27;77.02
66522;SHT31;53349;53.538;8.584;2023-02-15T00:09:28;6.14;77.54
66522;SHT31;53349;53.538;8.584;2023-02-15T00:11:53;6.10;77.73
66522;SHT31;53349;53.538;8.584;2023-02-15T00:14:24;6.09;77.93
66522;SHT31;53349;53.538;8.584;2023-02-15T00:17:08;6.06;78.03
66522;SHT31;53349;53.538;8.584;2023-02-15T00:19:52;6.04;78.18
66522;SHT31;53349;53.538;8.584;2023-02-15T00:22:20;6.01;78.15
66522;SHT31;53349;53.538;8.584;2023-02-15T00:24:49;5.99;78.33
66522;SHT31;53349;53.538;8.584;2023-02-15T00:27:14;5.96;78.43
66522;SHT31;53349;53.538;8.584;2023-02-15T00:29:52;5.96;78.40
66522;SHT31;53349;53.538;8.584;2023-02-15T00:32:17;5.96;78.28
66522;SHT31;53349;53.538;8.584;2023-02-15T00:34:42;5.93;78.33
66522;SHT31;53349;53.538;8.584;2023-02-15T00:37:15;5.90;78.44
66522;SHT31;53349;53.538;8.584;2023-02-15T00:42:33;5.86;78.47
66522;SHT31;53349;53.538;8.584;2023-02-15T00:45:01;5.85;78.33
66522;SHT31;53349;53.538;8.584;2023-02-15T00:47:28;5.79;78.38
66522;SHT31;53349;53.538;8.584;2023-02-15T00:49:54;5.77;78.44
66522;SHT31;53349;53.538;8.584;2023-02-15T00:52:20;5.79;78.47
66522;SHT31;53349;53.538;8.584;2023-02-15T00:54:45;5.79;78.45
66522;SHT31;53349;53.538;8.584;2023-02-15T00:57:12;5.76;78.45
66522;SHT31;53349;53.538;8.584;2023-02-15T00:59:38;5.76;78.47
66522;SHT31;53349;53.538;8.584;2023-02-15T01:02:05;5.73;78.61
66522;SHT31;53349;53.538;8.584;2023-02-15T01:04:30;5.72;78.65
66522;SHT31;53349;53.538;8.584;2023-02-15T01:06:57;5.66;78.67
66522;SHT31;53349;53.538;8.584;2023-02-15T01:09:23;5.66;78.82
66522;SHT31;53349;53.538;8.584;2023-02-15T01:11:48;5.67;78.76
66522;SHT31;53349;53.538;8.584;2023-02-15T01:14:13;5.65;78.77
66522;SHT31;53349;53.538;8.584;2023-02-15T01:16:40;5.67;78.73
66522;SHT31;53349;53.538;8.584;2023-02-15T01:19:05;5.63;78.75
66522;SHT31;53349;53.538;8.584;2023-02-15T01:21:32;5.62;78.59
66522;SHT31;53349;53.538;8.584;2023-02-15T01:23:58;5.55;78.69
66522;SHT31;53349;53.538;8.584;2023-02-15T01:26:23;5.51;78.85
66522;SHT31;53349;53.538;8.584;2023-02-15T01:28:48;5.51;78.82
66522;SHT31;53349;53.538;8.584;2023-02-15T01:31:16;5.51;78.85
66522;SHT31;53349;53.538;8.584;2023-02-15T01:33:42;5.46;78.83
66522;SHT31;53349;53.538;8.584;2023-02-15T01:36:07;5.46;78.73
66522;SHT31;53349;53.538;8.584;2023-02-15T01:38:34;5.53;78.74
66522;SHT31;53349;53.538;8.584;2023-02-15T01:41:02;5.48;78.58
66522;SHT31;53349;53.538;8.584;2023-02-15T01:43:44;5.46;78.54
66522;SHT31;53349;53.538;8.584;2023-02-15T01:46:13;5.36;78.65
66522;SHT31;53349;53.538;8.584;2023-02-15T01:48:45;5.36;78.69
66522;SHT31;53349;53.538;8.584;2023-02-15T01:51:11;5.34;78.61
66522;SHT31;53349;53.538;8.584;2023-02-15T01:53:42;5.38;78.59
66522;SHT31;53349;53.538;8.584;2023-02-15T01:56:12;5.38;78.42
66522;SHT31;53349;53.538;8.584;2023-02-15T01:58:38;5.36;78.02
66522;SHT31;53349;53.538;8.584;2023-02-15T02:01:05;5.36;78.00
66522;SHT31;53349;53.538;8.584;2023-02-15T02:03:53;5.28;77.72
66522;SHT31;53349;53.538;8.584;2023-02-15T02:06:21;5.27;77.83
66522;SHT31;53349;53.538;8.584;2023-02-15T02:08:47;5.18;77.93
66522;SHT31;53349;53.538;8.584;2023-02-15T02:11:14;5.17;78.08
66522;SHT31;53349;53.538;8.584;2023-02-15T02:13:40;5.15;78.28
66522;SHT31;53349;53.538;8.584;2023-02-15T02:16:25;5.12;78.61
66522;SHT31;53349;53.538;8.584;2023-02-15T02:19:23;5.05;78.66
66522;SHT31;53349;53.538;8.584;2023-02-15T02:27:47;5.04;78.94
66522;SHT31;53349;53.538;8.584;2023-02-15T02:36:45;4.91;79.31
66522;SHT31;53349;53.538;8.584;2023-02-15T02:47:32;4.84;79.29
66522;SHT31;53349;53.538;8.584;2023-02-15T02:50:01;4.79;79.32
66522;SHT31;53349;53.538;8.584;2023-02-15T02:52:54;4.70;79.55
66522;SHT31;53349;53.538;8.584;2023-02-15T02:55:46;4.69;79.63
66522;SHT31;53349;53.538;8.584;2023-02-15T02:58:20;4.61;79.71
66522;SHT31;53349;53.538;8.584;2023-02-15T03:03:26;4.57;79.67
66522;SHT31;53349;53.538;8.584;2023-02-15T03:05:59;4.48;79.63
66522;SHT31;53349;53.538;8.584;2023-02-15T03:08:30;4.46;79.68
66522;SHT31;53349;53.538;8.584;2023-02-15T03:11:03;4.40;79.49
66522;SHT31;53349;53.538;8.584;2023-02-15T03:13:29;4.45;79.31
66522;SHT31;53349;53.538;8.584;2023-02-15T03:15:55;4.49;79.28
66522;SHT31;53349;53.538;8.584;2023-02-15T03:18:25;4.49;78.96
66522;SHT31;53349;53.538;8.584;2023-02-15T03:20:53;4.36;78.80
66522;SHT31;53349;53.538;8.584;2023-02-15T03:23:23;4.42;78.84
66522;SHT31;53349;53.538;8.584;2023-02-15T03:25:52;4.30;78.50
66522;SHT31;53349;53.538;8.584;2023-02-15T03:28:25;4.26;78.68
66522;SHT31;53349;53.538;8.584;2023-02-15T03:30:55;4.22;78.65
66522;SHT31;53349;53.538;8.584;2023-02-15T03:33:26;4.26;78.62
66522;SHT31;53349;53.538;8.584;2023-02-15T03:39:32;4.20;78.30
66522;SHT31;53349;53.538;8.584;2023-02-15T03:41:39;4.11;78.20
66522;SHT31;53349;53.538;8.584;2023-02-15T03:44:20;4.12;78.16
66522;SHT31;53349;53.538;8.584;2023-02-15T03:46:56;4.06;78.23
66522;SHT31;53349;53.538;8.584;2023-02-15T03:49:41;3.99;78.40
66522;SHT31;53349;53.538;8.584;2023-02-15T03:52:08;4.01;78.46
66522;SHT31;53349;53.538;8.584;2023-02-15T03:54:35;3.99;78.19
66522;SHT31;53349;53.538;8.584;2023-02-15T03:57:01;3.95;78.13
66522;SHT31;53349;53.538;8.584;2023-02-15T03:59:27;3.95;78.13
66522;SHT31;53349;53.538;8.584;2023-02-15T04:02:16;3.91;78.03
66522;SHT31;53349;53.538;8.584;2023-02-15T04:04:46;3.85;78.01
66522;SHT31;53349;53.538;8.584;2023-02-15T04:07:13;3.84;77.90
66522;SHT31;53349;53.538;8.584;2023-02-15T04:09:39;3.85;77.85
66522;SHT31;53349;53.538;8.584;2023-02-15T04:12:04;3.81;77.74
66522;SHT31;53349;53.538;8.584;2023-02-15T04:14:29;3.77;77.74
66522;SHT31;53349;53.538;8.584;2023-02-15T04:16:58;3.67;77.70
66522;SHT31;53349;53.538;8.584;2023-02-15T04:19:24;3.64;77.79
66522;SHT31;53349;53.538;8.584;2023-02-15T04:21:49;3.63;77.77
66522;SHT31;53349;53.538;8.584;2023-02-15T04:24:15;3.63;77.63
66522;SHT31;53349;53.538;8.584;2023-02-15T04:26:43;3.61;77.41
66522;SHT31;53349;53.538;8.584;2023-02-15T04:29:14;3.58;77.62
66522;SHT31;53349;53.538;8.584;2023-02-15T04:31:39;3.57;77.58
66522;SHT31;53349;53.538;8.584;2023-02-15T04:34:06;3.61;77.68
66522;SHT31;53349;53.538;8.584;2023-02-15T04:36:32;3.63;77.55
66522;SHT31;53349;53.538;8.584;2023-02-15T04:38:57;3.64;77.51
66522;SHT31;53349;53.538;8.584;2023-02-15T04:41:25;3.58;77.47
66522;SHT31;53349;53.538;8.584;2023-02-15T04:43:51;3.57;77.61
66522;SHT31;53349;53.538;8.584;2023-02-15T04:46:16;3.51;77.72
66522;SHT31;53349;53.538;8.584;2023-02-15T04:48:41;3.50;77.75
66522;SHT31;53349;53.538;8.584;2023-02-15T04:51:07;3.48;77.77
66522;SHT31;53349;53.538;8.584;2023-02-15T04:53:33;3.50;77.78
66522;SHT31;53349;53.538;8.584;2023-02-15T04:55:58;3.47;77.96
66522;SHT31;53349;53.538;8.584;2023-02-15T04:58:26;3.41;77.82
66522;SHT31;53349;53.538;8.584;2023-02-15T05:00:57;3.47;77.87
66522;SHT31;53349;53.538;8.584;2023-02-15T05:03:23;3.44;77.70
66522;SHT31;53349;53.538;8.584;2023-02-15T05:05:48;3.39;77.64
66522;SHT31;53349;53.538;8.584;2023-02-15T05:08:15;3.40;77.65
66522;SHT31;53349;53.538;8.584;2023-02-15T05:10:40;3.40;77.66
66522;SHT31;53349;53.538;8.584;2023-02-15T05:13:06;3.43;77.56
66522;SHT31;53349;53.538;8.584;2023-02-15T05:15:31;3.37;77.64
66522;SHT31;53349;53.538;8.584;2023-02-15T05:17:56;3.39;77.59
66522;SHT31;53349;53.538;8.584;2023-02-15T05:20:22;3.39;77.41
66522;SHT31;53349;53.538;8.584;2023-02-15T05:22:48;3.37;77.57
66522;SHT31;53349;53.538;8.584;2023-02-15T05:25:13;3.30;77.59
66522;SHT31;53349;53.538;8.584;2023-02-15T05:27:39;3.27;77.69
66522;SHT31;53349;53.538;8.584;2023-02-15T05:30:05;3.29;77.68
66522;SHT31;53349;53.538;8.584;2023-02-15T05:32:31;3.23;77.73
66522;SHT31;53349;53.538;8.584;2023-02-15T05:34:56;3.17;77.74
66522;SHT31;53349;53.538;8.584;2023-02-15T05:37:21;3.22;77.70
66522;SHT31;53349;53.538;8.584;2023-02-15T05:39:47;3.22;77.45
66522;SHT31;53349;53.538;8.584;2023-02-15T05:42:12;3.15;77.44
66522;SHT31;53349;53.538;8.584;2023-02-15T05:44:38;3.13;77.64
66522;SHT31;53349;53.538;8.584;2023-02-15T05:47:03;3.13;77.68
66522;SHT31;53349;53.538;8.584;2023-02-15T05:49:28;3.08;77.64
66522;SHT31;53349;53.538;8.584;2023-02-15T05:51:53;3.03;77.71
66522;SHT31;53349;53.538;8.584;2023-02-15T05:54:19;2.95;77.86
66522;SHT31;53349;53.538;8.584;2023-02-15T05:56:44;2.96;77.78
66522;SHT31;53349;53.538;8.584;2023-02-15T05:59:12;2.92;77.68
66522;SHT31;53349;53.538;8.584;2023-02-15T06:01:37;2.82;77.96
66522;SHT31;53349;53.538;8.584;2023-02-15T06:04:03;2.88;77.93
66522;SHT31;53349;53.538;8.584;2023-02-15T06:06:28;2.91;77.81
66522;SHT31;53349;53.538;8.584;2023-02-15T06:08:55;2.86;77.63
66522;SHT31;53349;53.538;8.584;2023-02-15T06:11:24;2.95;77.67
66522;SHT31;53349;53.538;8.584;2023-02-15T06:13:49;2.88;77.49
66522;SHT31;53349;53.538;8.584;2023-02-15T06:16:15;2.91;77.57
66522;SHT31;53349;53.538;8.584;2023-02-15T06:18:43;2.82;77.56
66522;SHT31;53349;53.538;8.584;2023-02-15T06:21:09;2.86;77.47
66522;SHT31;53349;53.538;8.584;2023-02-15T06:23:35;2.84;77.31
66522;SHT31;53349;53.538;8.584;2023-02-15T06:26:00;2.82;77.25
66522;SHT31;53349;53.538;8.584;2023-02-15T06:28:25;2.74;77.26
66522;SHT31;53349;53.538;8.584;2023-02-15T06:30:53;2.75;77.27
66522;SHT31;53349;53.538;8.584;2023-02-15T06:33:18;2.75;77.11
66522;SHT31;53349;53.538;8.584;2023-02-15T06:35:45;2.81;77.04
66522;SHT31;53349;53.538;8.584;2023-02-15T06:38:11;2.89;76.71
66522;SHT31;53349;53.538;8.584;2023-02-15T06:40:36;2.86;76.48
66522;SHT31;53349;53.538;8.584;2023-02-15T06:43:01;2.81;76.37
66522;SHT31;53349;53.538;8.584;2023-02-15T06:45:27;2.82;76.51
66522;SHT31;53349;53.538;8.584;2023-02-15T06:47:52;2.72;76.64
66522;SHT31;53349;53.538;8.584;2023-02-15T06:50:18;2.68;76.89
66522;SHT31;53349;53.538;8.584;2023-02-15T06:52:45;2.75;76.97
66522;SHT31;53349;53.538;8.584;2023-02-15T06:55:10;2.69;76.92
66522;SHT31;53349;53.538;8.584;2023-02-15T06:57:36;2.75;76.98
66522;SHT31;53349;53.538;8.584;2023-02-15T07:00:02;2.77;76.89
66522;SHT31;53349;53.538;8.584;2023-02-15T07:02:28;2.68;76.95
66522;SHT31;53349;53.538;8.584;2023-02-15T07:04:56;2.69;77.13
66522;SHT31;53349;53.538;8.584;2023-02-15T07:07:21;2.64;77.17
66522;SHT31;53349;53.538;8.584;2023-02-15T07:09:46;2.71;77.31
66522;SHT31;53349;53.538;8.584;2023-02-15T07:12:13;2.74;77.16
66522;SHT31;53349;53.538;8.584;2023-02-15T07:14:40;2.78;77.04
66522;SHT31;53349;53.538;8.584;2023-02-15T07:17:05;2.82;76.87
66522;SHT31;53349;53.538;8.584;2023-02-15T07:19:30;2.84;76.90
66522;SHT31;53349;53.538;8.584;2023-02-15T07:21:57;2.88;76.94
66522;SHT31;53349;53.538;8.584;2023-02-15T07:24:22;2.86;76.79
66522;SHT31;53349;53.538;8.584;2023-02-15T07:26:47;2.85;76.94
66522;SHT31;53349;53.538;8.584;2023-02-15T07:29:13;2.89;76.87
66522;SHT31;53349;53.538;8.584;2023-02-15T07:31:38;2.81;76.78
66522;SHT31;53349;53.538;8.584;2023-02-15T07:34:06;2.81;77.08
66522;SHT31;53349;53.538;8.584;2023-02-15T07:36:31;2.88;76.98
66522;SHT31;53349;53.538;8.584;2023-02-15T07:38:57;2.85;77.05
66522;SHT31;53349;53.538;8.584;2023-02-15T07:41:22;2.92;77.07
66522;SHT31;53349;53.538;8.584;2023-02-15T07:43:47;2.96;76.98
66522;SHT31;53349;53.538;8.584;2023-02-15T07:46:14;3.03;77.00
66522;SHT31;53349;53.538;8.584;2023-02-15T07:48:40;3.09;76.87
66522;SHT31;53349;53.538;8.584;2023-02-15T07:51:08;3.16;76.70
66522;SHT31;53349;53.538;8.584;2023-02-15T07:53:35;3.15;76.56
66522;SHT31;53349;53.538;8.584;2023-02-15T07:56:03;3.15;76.81
66522;SHT31;53349;53.538;8.584;2023-02-15T07:58:28;3.20;76.79
66522;SHT31;53349;53.538;8.584;2023-02-15T08:00:56;3.36;76.75
66522;SHT31;53349;53.538;8.584;2023-02-15T08:03:29;3.43;76.25
66522;SHT31;53349;53.538;8.584;2023-02-15T08:05:57;3.54;76.18
66522;SHT31;53349;53.538;8.584;2023-02-15T08:08:26;3.64;75.86
66522;SHT31;53349;53.538;8.584;2023-02-15T08:11:20;3.67;76.24
66522;SHT31;53349;53.538;8.584;2023-02-15T08:13:48;3.74;76.27
66522;SHT31;53349;53.538;8.584;2023-02-15T08:16:16;3.88;75.92
66522;SHT31;53349;53.538;8.584;2023-02-15T08:18:42;4.09;75.78
66522;SHT31;53349;53.538;8.584;2023-02-15T08:21:10;4.23;75.21
66522;SHT31;53349;53.538;8.584;2023-02-15T08:23:35;4.35;74.61
66522;SHT31;53349;53.538;8.584;2023-02-15T08:26:00;4.56;74.60
66522;SHT31;53349;53.538;8.584;2023-02-15T08:28:26;4.81;75.62
66522;SHT31;53349;53.538;8.584;2023-02-15T08:30:54;4.91;74.98
66522;SHT31;53349;53.538;8.584;2023-02-15T08:33:20;5.27;74.92
66522;SHT31;53349;53.538;8.584;2023-02-15T08:35:45;5.46;74.32
66522;SHT31;53349;53.538;8.584;2023-02-15T08:38:13;5.51;73.95
66522;SHT31;53349;53.538;8.584;2023-02-15T08:40:42;5.73;73.15
66522;SHT31;53349;53.538;8.584;2023-02-15T08:43:08;5.90;72.41
66522;SHT31;53349;53.538;8.584;2023-02-15T08:45:46;6.07;71.04
66522;SHT31;53349;53.538;8.584;2023-02-15T08:48:28;6.23;71.00
66522;SHT31;53349;53.538;8.584;2023-02-15T08:51:29;6.31;69.94
66522;SHT31;53349;53.538;8.584;2023-02-15T08:54:24;6.48;69.48
66522;SHT31;53349;53.538;8.584;2023-02-15T08:56:49;6.68;68.90
66522;SHT31;53349;53.538;8.584;2023-02-15T08:59:20;6.92;68.44
66522;SHT31;53349;53.538;8.584;2023-02-15T09:01:50;7.22;68.12
66522;SHT31;53349;53.538;8.584;2023-02-15T09:04:22;7.27;67.12
66522;SHT31;53349;53.538;8.584;2023-02-15T09:06:49;7.65;66.93
66522;SHT31;53349;53.538;8.584;2023-02-15T09:09:18;7.84;65.77
66522;SHT31;53349;53.538;8.584;2023-02-15T09:11:46;8.02;65.02
66522;SHT31;53349;53.538;8.584;2023-02-15T09:14:15;8.25;64.71
66522;SHT31;53349;53.538;8.584;2023-02-15T09:16:43;8.39;64.03
66522;SHT31;53349;53.538;8.584;2023-02-15T09:19:12;8.63;63.73
66522;SHT31;53349;53.538;8.584;2023-02-15T09:21:45;8.80;62.84
66522;SHT31;53349;53.538;8.584;2023-02-15T09:24:15;8.91;62.38
66522;SHT31;53349;53.538;8.584;2023-02-15T09:26:51;9.03;62.02
66522;SHT31;53349;53.538;8.584;2023-02-15T09:29:40;9.03;62.16
66522;SHT31;53349;53.538;8.584;2023-02-15T09:32:16;9.08;62.22
66522;SHT31;53349;53.538;8.584;2023-02-15T09:34:42;9.08;62.15
66522;SHT31;53349;53.538;8.584;2023-02-15T09:37:16;9.36;61.95
66522;SHT31;53349;53.538;8.584;2023-02-15T09:39:43;9.62;61.49
66522;SHT31;53349;53.538;8.584;2023-02-15T09:42:49;9.59;60.85
66522;SHT31;53349;53.538;8.584;2023-02-15T09:45:30;9.52;61.61
66522;SHT31;53349;53.538;8.584;2023-02-15T09:57:03;10.40;60.55
66522;SHT31;53349;53.538;8.584;2023-02-15T10:02:43;10.71;59.07
66522;SHT31;53349;53.538;8.584;2023-02-15T10:28:06;11.75;57.75
66522;SHT31;53349;53.538;8.584;2023-02-15T10:30:57;11.84;57.62
66522;SHT31;53349;53.538;8.584;2023-02-15T10:38:33;12.15;57.40
66522;SHT31;53349;53.538;8.584;2023-02-15T10:41:31;11.98;57.49
66522;SHT31;53349;53.538;8.584;2023-02-15T10:44:25;12.06;58.07
66522;SHT31;53349;53.538;8.584;2023-02-15T10:47:36;12.12;57.77
66522;SHT31;53349;53.538;8.584;2023-02-15T11:06:01;12.18;57.98
66522;SHT31;53349;53.538;8.584;2023-02-15T11:08:33;12.04;59.42
66522;SHT31;53349;53.538;8.584;2023-02-15T11:11:07;11.98;59.29
66522;SHT31;53349;53.538;8.584;2023-02-15T11:13:39;11.96;59.01
66522;SHT31;53349;53.538;8.584;2023-02-15T11:16:32;11.95;58.95
66522;SHT31;53349;53.538;8.584;2023-02-15T11:19:25;11.91;59.10
66522;SHT31;53349;53.538;8.584;2023-02-15T11:21:59;12.01;58.71
66522;SHT31;53349;53.538;8.584;2023-02-15T11:24:28;12.11;58.70
66522;SHT31;53349;53.538;8.584;2023-02-15T11:27:25;11.95;58.88
66522;SHT31;53349;53.538;8.584;2023-02-15T11:32:44;12.33;58.55
66522;SHT31;53349;53.538;8.584;2023-02-15T11:37:44;12.28;58.89
66522;SHT31;53349;53.538;8.584;2023-02-15T11:40:35;12.26;59.30
66522;SHT31;53349;53.538;8.584;2023-02-15T11:43:32;12.14;59.41
66522;SHT31;53349;53.538;8.584;2023-02-15T11:46:00;12.02;59.54
66522;SHT31;53349;53.538;8.584;2023-02-15T11:48:25;12.04;59.74
66522;SHT31;53349;53.538;8.584;2023-02-15T11:50:55;11.95;59.79
66522;SHT31;53349;53.538;8.584;2023-02-15T11:53:23;11.92;60.94
66522;SHT31;53349;53.538;8.584;2023-02-15T11:55:49;11.88;60.27
66522;SHT31;53349;53.538;8.584;2023-02-15T12:00:58;11.96;60.45
66522;SHT31;53349;53.538;8.584;2023-02-15T12:03:50;12.11;60.07
66522;SHT31;53349;53.538;8.584;2023-02-15T12:06:25;12.09;60.16
66522;SHT31;53349;53.538;8.584;2023-02-15T12:09:07;12.15;60.07
66522;SHT31;53349;53.538;8.584;2023-02-15T12:11:39;12.18;59.72
66522;SHT31;53349;53.538;8.584;2023-02-15T12:14:07;12.15;59.75
66522;SHT31;53349;53.538;8.584;2023-02-15T12:16:41;12.05;60.21
66522;SHT31;53349;53.538;8.584;2023-02-15T12:19:36;11.94;60.52
66522;SHT31;53349;53.538;8.584;2023-02-15T12:22:04;11.78;61.03
66522;SHT31;53349;53.538;8.584;2023-02-15T12:24:38;11.77;61.17
66522;SHT31;53349;53.538;8.584;2023-02-15T12:27:23;11.78;61.27
66522;SHT31;53349;53.538;8.584;2023-02-15T12:30:00;11.68;61.54
66522;SHT31;53349;53.538;8.584;2023-02-15T12:32:30;11.68;61.57
66522;SHT31;53349;53.538;8.584;2023-02-15T12:35:18;11.47;61.98
66522;SHT31;53349;53.538;8.584;2023-02-15T12:38:01;11.50;62.38
66522;SHT31;53349;53.538;8.584;2023-02-15T12:40:32;11.38;62.73
66522;SHT31;53349;53.538;8.584;2023-02-15T12:42:58;11.33;63.16
66522;SHT31;53349;53.538;8.584;2023-02-15T12:45:39;11.17;63.87
66522;SHT31;53349;53.538;8.584;2023-02-15T12:50:41;11.13;64.10
66522;SHT31;53349;53.538;8.584;2023-02-15T12:55:58;11.12;64.61
66522;SHT31;53349;53.538;8.584;2023-02-15T12:58:28;11.05;64.36
66522;SHT31;53349;53.538;8.584;2023-02-15T13:01:17;11.09;64.09
66522;SHT31;53349;53.538;8.584;2023-02-15T13:06:27;11.16;63.90
66522;SHT31;53349;53.538;8.584;2023-02-15T13:08:58;11.10;64.03
66522;SHT31;53349;53.538;8.584;2023-02-15T13:11:33;11.12;63.98
66522;SHT31;53349;53.538;8.584;2023-02-15T13:14:21;11.06;64.12
66522;SHT31;53349;53.538;8.584;2023-02-15T13:16:51;11.02;64.41
66522;SHT31;53349;53.538;8.584;2023-02-15T13:22:10;10.93;64.69
66522;SHT31;53349;53.538;8.584;2023-02-15T13:24:43;10.85;64.80
66522;SHT31;53349;53.538;8.584;2023-02-15T13:27:17;10.79;65.13
66522;SHT31;53349;53.538;8.584;2023-02-15T13:29:48;10.83;65.15
66522;SHT31;53349;53.538;8.584;2023-02-15T13:32:33;10.80;65.24
66522;SHT31;53349;53.538;8.584;2023-02-15T13:35:00;10.80;65.30
66522;SHT31;53349;53.538;8.584;2023-02-15T13:40:37;10.79;65.51
66522;SHT31;53349;53.538;8.584;2023-02-15T13:43:41;10.73;65.43
66522;SHT31;53349;53.538;8.584;2023-02-15T13:52:51;10.62;65.59
66522;SHT31;53349;53.538;8.584;2023-02-15T13:58:26;10.64;65.67
66522;SHT31;53349;53.538;8.584;2023-02-15T14:04:48;10.69;65.74
66522;SHT31;53349;53.538;8.584;2023-02-15T14:07:25;10.61;65.67
66522;SHT31;53349;53.538;8.584;2023-02-15T14:10:02;10.56;65.94
66522;SHT31;53349;53.538;8.584;2023-02-15T14:21:42;10.30;67.34
66522;SHT31;53349;53.538;8.584;2023-02-15T14:24:36;10.28;67.60
66522;SHT31;53349;53.538;8.584;2023-02-15T14:27:57;10.20;67.81
66522;SHT31;53349;53.538;8.584;2023-02-15T14:30:15;10.22;67.89
66522;SHT31;53349;53.538;8.584;2023-02-15T14:32:59;10.18;67.82
66522;SHT31;53349;53.538;8.584;2023-02-15T14:35:28;10.17;68.05
66522;SHT31;53349;53.538;8.584;2023-02-15T14:38:01;10.18;68.21
66522;SHT31;53349;53.538;8.584;2023-02-15T14:40:54;10.17;68.32
66522;SHT31;53349;53.538;8.584;2023-02-15T14:49:29;10.17;68.68
66522;SHT31;53349;53.538;8.584;2023-02-15T14:52:02;10.10;68.81
66522;SHT31;53349;53.538;8.584;2023-02-15T14:59:52;10.08;69.07
66522;SHT31;53349;53.538;8.584;2023-02-15T15:02:46;10.08;68.97
66522;SHT31;53349;53.538;8.584;2023-02-15T15:05:33;10.10;68.79
66522;SHT31;53349;53.538;8.584;2023-02-15T15:08:00;10.06;68.79
66522;SHT31;53349;53.538;8.584;2023-02-15T15:10:38;10.07;68.68
66522;SHT31;53349;53.538;8.584;2023-02-15T15:16:24;10.04;68.80
66522;SHT31;53349;53.538;8.584;2023-02-15T15:18:50;10.01;68.92
66522;SHT31;53349;53.538;8.584;2023-02-15T15:21:51;9.98;68.97
66522;SHT31;53349;53.538;8.584;2023-02-15T15:27:44;9.96;69.00
66522;SHT31;53349;53.538;8.584;2023-02-15T15:32:45;10.00;69.42
66522;SHT31;53349;53.538;8.584;2023-02-15T15:41:39;9.98;69.81
66522;SHT31;53349;53.538;8.584;2023-02-15T15:47:44;9.93;69.91
66522;SHT31;53349;53.538;8.584;2023-02-15T15:50:19;9.91;70.04
66522;SHT31;53349;53.538;8.584;2023-02-15T15:52:55;9.89;70.33
66522;SHT31;53349;53.538;8.584;2023-02-15T15:55:23;9.87;70.49
66522;SHT31;53349;53.538;8.584;2023-02-15T15:57:53;9.82;70.65
66522;SHT31;53349;53.538;8.584;2023-02-15T16:00:41;9.77;70.86
66522;SHT31;53349;53.538;8.584;2023-02-15T16:03:27;9.76;71.05
66522;SHT31;53349;53.538;8.584;2023-02-15T16:06:04;9.70;71.10
66522;SHT31;53349;53.538;8.584;2023-02-15T16:08:35;9.69;71.20
66522;SHT31;53349;53.538;8.584;2023-02-15T16:11:25;9.63;71.84
66522;SHT31;53349;53.538;8.584;2023-02-15T16:13:51;9.62;71.60
66522;SHT31;53349;53.538;8.584;2023-02-15T16:16:22;9.60;71.63
66522;SHT31;53349;53.538;8.584;2023-02-15T16:18:48;9.56;71.70
66522;SHT31;53349;53.538;8.584;2023-02-15T16:21:20;9.50;71.78
66522;SHT31;53349;53.538;8.584;2023-02-15T16:29:17;9.45;71.96
66522;SHT31;53349;53.538;8.584;2023-02-15T16:31:42;9.39;72.03
66522;SHT31;53349;53.538;8.584;2023-02-15T16:34:17;9.35;72.00
66522;SHT31;53349;53.538;8.584;2023-02-15T16:36:43;9.32;71.99
66522;SHT31;53349;53.538;8.584;2023-02-15T16:39:17;9.29;72.02
66522;SHT31;53349;53.538;8.584;2023-02-15T16:41:48;9.25;72.03
66522;SHT31;53349;53.538;8.584;2023-02-15T16:44:20;9.22;71.91
66522;SHT31;53349;53.538;8.584;2023-02-15T16:46:51;9.21;71.89
66522;SHT31;53349;53.538;8.584;2023-02-15T16:49:25;9.22;71.76
66522;SHT31;53349;53.538;8.584;2023-02-15T16:51:59;9.19;71.72
66522;SHT31;53349;53.538;8.584;2023-02-15T16:54:35;9.19;71.70
66522;SHT31;53349;53.538;8.584;2023-02-15T16:57:03;9.12;71.78
66522;SHT31;53349;53.538;8.584;2023-02-15T16:59:34;9.10;71.85
66522;SHT31;53349;53.538;8.584;2023-02-15T17:02:04;9.08;71.88
66522;SHT31;53349;53.538;8.584;2023-02-15T17:04:32;9.07;71.90
66522;SHT31;53349;53.538;8.584;2023-02-15T17:07:02;9.00;72.00
66522;SHT31;53349;53.538;8.584;2023-02-15T17:09:28;8.97;72.11
66522;SHT31;53349;53.538;8.584;2023-02-15T17:11:56;8.92;72.20
66522;SHT31;53349;53.538;8.584;2023-02-15T17:14:37;8.87;72.25
66522;SHT31;53349;53.538;8.584;2023-02-15T17:17:18;8.85;72.30
66522;SHT31;53349;53.538;8.584;2023-02-15T17:19:52;8.83;72.33
66522;SHT31;53349;53.538;8.584;2023-02-15T17:22:25;8.83;72.36
66522;SHT31;53349;53.538;8.584;2023-02-15T17:24:58;8.75;72.34
66522;SHT31;53349;53.538;8.584;2023-02-15T17:27:26;8.78;72.33
66522;SHT31;53349;53.538;8.584;2023-02-15T17:29:59;8.77;72.22
66522;SHT31;53349;53.538;8.584;2023-02-15T17:32:34;8.77;72.20
66522;SHT31;53349;53.538;8.584;2023-02-15T17:40:27;8.63;72.41
66522;SHT31;53349;53.538;8.584;2023-02-15T17:42:59;8.57;72.52
66522;SHT31;53349;53.538;8.584;2023-02-15T17:45:43;8.59;72.54
66522;SHT31;53349;53.538;8.584;2023-02-15T17:48:56;8.56;72.48
66522;SHT31;53349;53.538;8.584;2023-02-15T17:51:16;8.54;72.41
66522;SHT31;53349;53.538;8.584;2023-02-15T17:53:47;8.52;72.26
66522;SHT31;53349;53.538;8.584;2023-02-15T17:56:18;8.49;72.32
66522;SHT31;53349;53.538;8.584;2023-02-15T17:58:44;8.47;72.25
66522;SHT31;53349;53.538;8.584;2023-02-15T18:01:21;8.43;72.14
66522;SHT31;53349;53.538;8.584;2023-02-15T18:03:58;8.44;72.07
66522;SHT31;53349;53.538;8.584;2023-02-15T18:06:26;8.39;72.09
66522;SHT31;53349;53.538;8.584;2023-02-15T18:08:53;8.42;71.99
66522;SHT31;53349;53.538;8.584;2023-02-15T18:11:18;8.37;71.97
66522;SHT31;53349;53.538;8.584;2023-02-15T18:13:44;8.34;71.91
66522;SHT31;53349;53.538;8.584;2023-02-15T18:16:13;8.37;71.77
66522;SHT31;53349;53.538;8.584;2023-02-15T18:18:40;8.29;71.70
66522;SHT31;53349;53.538;8.584;2023-02-15T18:21:10;8.29;71.70
66522;SHT31;53349;53.538;8.584;2023-02-15T18:23:36;8.29;71.62
66522;SHT31;53349;53.538;8.584;2023-02-15T18:26:03;8.29;71.43
66522;SHT31;53349;53.538;8.584;2023-02-15T18:28:32;8.29;71.47
66522;SHT31;53349;53.538;8.584;2023-02-15T18:30:58;8.28;71.45
66522;SHT31;53349;53.538;8.584;2023-02-15T18:33:41;8.25;71.39
66522;SHT31;53349;53.538;8.584;2023-02-15T18:36:27;8.26;71.32
66522;SHT31;53349;53.538;8.584;2023-02-15T18:38:54;8.21;71.33
66522;SHT31;53349;53.538;8.584;2023-02-15T18:41:21;8.19;71.45
66522;SHT31;53349;53.538;8.584;2023-02-15T18:43:56;8.15;71.50
66522;SHT31;53349;53.538;8.584;2023-02-15T18:46:34;8.16;71.63
66522;SHT31;53349;53.538;8.584;2023-02-15T18:48:59;8.12;71.64
66522;SHT31;53349;53.538;8.584;2023-02-15T18:51:26;8.12;71.68
66522;SHT31;53349;53.538;8.584;2023-02-15T18:53:52;8.09;71.68
66522;SHT31;53349;53.538;8.584;2023-02-15T18:56:21;8.10;71.61
66522;SHT31;53349;53.538;8.584;2023-02-15T18:58:48;8.10;71.57
66522;SHT31;53349;53.538;8.584;2023-02-15T19:01:20;8.07;71.55
66522;SHT31;53349;53.538;8.584;2023-02-15T19:03:50;8.02;71.48